Time;durP1;ratioP1;P1;durP2;ratioP2;P2;SDS_P1;SDS_P2;PMS_P1;PMS_P2;Temp;Humidity;BMP_temperature;BMP_pressure;BME280_temperature;BME280_humidity;BME280_pressure;Samples;Min_cycle;Max_cycle;Signal;HPM_P1;HPM_P2
2020/12/10 00:01:51;;;;;;;;;;;;;;;2.63;67.92;101212.25;1772928;80;21296;-56
2020/12/10 00:04:21;;;;;;;;;;;;;;;2.63;67.91;101209.22;1790904;80;20536;-56
2020/12/10 00:06:49;;;;;;;;;;;;;;;2.62;67.95;101206.59;1790787;80;20261;-56
2020/12/10 00:09:17;;;;;;;;;;;;;;;2.61;67.93;101199.62;1779561;80;20218;-56
2020/12/10 00:11:45;;;;;;;;;;;;;;;2.59;67.99;101199.98;1767560;80;20269;-56
2020/12/10 00:14:13;;;;;;;;;;;;;;;2.63;68.00;101205.33;1776850;80;20413;-56
2020/12/10 00:16:40;;;;;;;;;;;;;;;2.66;67.91;101199.33;1772343;80;21357;-56
2020/12/10 00:19:08;;;;;;;;;;;;;;;2.59;68.09;101203.45;1772846;80;20253;-55
2020/12/10 00:21:36;;;;;;;;;;;;;;;2.58;68.11;101189.12;1791093;80;20222;-56
2020/12/10 00:24:04;;;;;;;;;;;;;;;2.64;68.03;101183.70;1789866;80;20214;-56
2020/12/10 00:26:31;;;;;;;;;;;;;;;2.67;67.92;101169.50;1775576;80;20244;-56
2020/12/10 00:28:59;;;;;;;;;;;;;;;2.69;67.88;101169.53;1783213;80;21381;-56
2020/12/10 00:31:27;;;;;;;;;;;;;;;2.73;67.83;101164.04;1774062;80;20661;-55
2020/12/10 00:33:55;;;;;;;;;;;;;;;2.66;67.92;101165.53;1778875;80;21017;-56
2020/12/10 00:36:23;;;;;;;;;;;;;;;2.63;68.05;101166.33;1781473;80;20392;-56
2020/12/10 00:38:51;;;;;;;;;;;;;;;2.63;68.09;101166.77;1790992;80;20288;-56
2020/12/10 00:41:18;;;;;;;;;;;;;;;2.68;68.01;101174.27;1777132;80;22142;-56
2020/12/10 00:43:45;;;;;;;;;;;;;;;2.69;67.97;101172.14;1770802;80;20216;-56
2020/12/10 00:46:12;;;;;;;;;;;;;;;2.73;67.90;101162.73;1754595;80;20260;-56
2020/12/10 00:48:41;;;;;;;;;;;;;;;2.75;67.88;101151.55;1770881;80;20250;-56
2020/12/10 00:51:09;;;;;;;;;;;;;;;2.68;68.11;101154.38;1781384;80;20261;-56
2020/12/10 00:53:36;;;;;;;;;;;;;;;2.61;68.31;101152.41;1782322;80;21654;-56
2020/12/10 00:56:03;;;;;;;;;;;;;;;2.61;68.41;101147.64;1790824;80;20238;-56
2020/12/10 00:58:31;;;;;;;;;;;;;;;2.62;68.46;101136.41;1780674;80;20278;-56
2020/12/10 01:00:59;;;;;;;;;;;;;;;2.63;68.48;101131.23;1783642;80;20289;-56
2020/12/10 01:03:26;;;;;;;;;;;;;;;2.64;68.54;101130.84;1782874;80;20214;-56
2020/12/10 01:05:53;;;;;;;;;;;;;;;2.65;68.53;101123.08;1785662;80;21411;-56
2020/12/10 01:08:20;;;;;;;;;;;;;;;2.67;68.55;101112.71;1758880;80;20257;-56
2020/12/10 01:10:47;;;;;;;;;;;;;;;2.66;68.64;101106.65;1766342;80;20305;-56
2020/12/10 01:13:14;;;;;;;;;;;;;;;2.69;68.62;101098.05;1761056;80;20216;-56
2020/12/10 01:15:42;;;;;;;;;;;;;;;2.68;68.66;101106.68;1782004;80;20246;-56
2020/12/10 01:18:09;;;;;;;;;;;;;;;2.70;68.73;101114.11;1784502;80;21261;-56
2020/12/10 01:20:36;;;;;;;;;;;;;;;2.72;68.70;101122.84;1779608;80;20272;-56
2020/12/10 01:23:03;;;;;;;;;;;;;;;2.74;68.71;101106.02;1782184;80;20242;-56
2020/12/10 01:25:31;;;;;;;;;;;;;;;2.76;68.72;101100.45;1785890;80;20246;-56
2020/12/10 01:27:58;;;;;;;;;;;;;;;2.77;68.77;101111.31;1777147;80;20234;-56
2020/12/10 01:30:26;;;;;;;;;;;;;;;2.78;68.73;101113.95;1785836;80;21263;-56
2020/12/10 01:32:53;;;;;;;;;;;;;;;2.79;68.78;101107.05;1783144;80;20259;-56
2020/12/10 01:35:21;;;;;;;;;;;;;;;2.82;68.73;101102.80;1762264;80;20258;-56
2020/12/10 01:37:48;;;;;;;;;;;;;;;2.83;68.79;101105.01;1780284;80;20315;-56
2020/12/10 01:40:15;;;;;;;;;;;;;;;2.86;68.83;101104.20;1773278;80;20262;-56
2020/12/10 01:42:42;;;;;;;;;;;;;;;2.87;68.87;101102.07;1779030;80;21867;-56
2020/12/10 01:45:09;;;;;;;;;;;;;;;2.87;68.92;101109.88;1782843;80;20258;-56
2020/12/10 01:47:37;;;;;;;;;;;;;;;2.88;69.02;101107.73;1780773;80;20222;-56
2020/12/10 01:50:04;;;;;;;;;;;;;;;2.86;69.08;101105.10;1776539;80;20255;-56
2020/12/10 01:52:31;;;;;;;;;;;;;;;2.97;68.83;101100.23;1769723;80;20252;-56
2020/12/10 01:54:59;;;;;;;;;;;;;;;2.98;68.81;101095.48;1775657;80;21389;-56
2020/12/10 01:57:28;;;;;;;;;;;;;;;2.93;68.96;101088.83;1778781;80;20230;-56
2020/12/10 01:59:56;;;;;;;;;;;;;;;2.92;69.00;101089.66;1779321;80;20229;-56
2020/12/10 02:02:23;;;;;;;;;;;;;;;2.98;68.99;101083.34;1772737;78;20478;-56
2020/12/10 02:04:51;;;;;;;;;;;;;;;2.95;69.03;101079.36;1772540;80;20238;-56
2020/12/10 02:07:18;;;;;;;;;;;;;;;2.95;69.08;101080.66;1762237;80;21379;-57
2020/12/10 02:09:45;;;;;;;;;;;;;;;2.96;69.15;101074.62;1777471;80;20246;-56
2020/12/10 02:12:13;;;;;;;;;;;;;;;3.00;69.09;101067.81;1771703;80;20214;-56
2020/12/10 02:14:40;;;;;;;;;;;;;;;3.08;68.87;101069.33;1760976;80;20273;-56
2020/12/10 02:17:08;;;;;;;;;;;;;;;3.09;68.92;101064.59;1779219;80;20266;-56
2020/12/10 02:19:35;;;;;;;;;;;;;;;3.07;68.89;101067.16;1779434;80;21307;-56
2020/12/10 02:22:03;;;;;;;;;;;;;;;3.08;68.94;101069.33;1771255;80;20242;-56
2020/12/10 02:24:31;;;;;;;;;;;;;;;3.08;68.92;101062.42;1774992;80;20282;-58
2020/12/10 02:26:58;;;;;;;;;;;;;;;3.05;69.03;101057.13;1775550;80;20277;-55
2020/12/10 02:29:25;;;;;;;;;;;;;;;3.09;68.89;101060.69;1778965;80;20235;-56
2020/12/10 02:31:53;;;;;;;;;;;;;;;3.09;68.88;101062.85;1779124;80;21365;-57
2020/12/10 02:34:20;;;;;;;;;;;;;;;3.09;68.89;101056.35;1777341;80;20247;-56
2020/12/10 02:36:48;;;;;;;;;;;;;;;3.11;68.85;101055.11;1774523;80;20262;-56
2020/12/10 02:39:15;;;;;;;;;;;;;;;3.08;68.92;101062.42;1766717;80;20250;-56
2020/12/10 02:41:45;;;;;;;;;;;;;;;3.10;68.88;101058.12;1771447;80;20284;-56
2020/12/10 02:44:12;;;;;;;;;;;;;;;3.06;68.99;101052.79;1784693;80;21390;-57
2020/12/10 02:46:40;;;;;;;;;;;;;;;3.11;68.89;101052.08;1771016;80;20227;-56
2020/12/10 02:49:08;;;;;;;;;;;;;;;3.15;68.88;101052.16;1758262;80;20296;-56
2020/12/10 02:51:35;;;;;;;;;;;;;;;3.17;68.83;101042.69;1761604;80;20249;-56
2020/12/10 02:54:02;;;;;;;;;;;;;;;3.06;69.19;101036.78;1762996;80;20243;-56
2020/12/10 02:56:29;;;;;;;;;;;;;;;3.07;69.18;101021.64;1768948;80;21333;-56
2020/12/10 02:58:59;;;;;;;;;;;;;;;3.04;69.31;101022.85;1764004;80;20294;-56
2020/12/10 03:01:26;;;;;;;;;;;;;;;3.02;69.40;101023.22;1780817;80;20308;-57
2020/12/10 03:03:55;;;;;;;;;;;;;;;3.04;69.41;101025.45;1788912;78;20214;-56
2020/12/10 03:06:22;;;;;;;;;;;;;;;3.06;69.46;101028.98;1791818;78;20237;-56
2020/12/10 03:08:49;;;;;;;;;;;;;;;3.15;69.23;101029.66;1790618;78;21237;-56
2020/12/10 03:11:16;;;;;;;;;;;;;;;3.16;69.31;101026.62;1794861;78;20237;-56
2020/12/10 03:13:43;;;;;;;;;;;;;;;3.16;69.37;101031.82;1780412;80;20217;-56
2020/12/10 03:16:11;;;;;;;;;;;;;;;3.21;69.30;101032.84;1785347;80;20246;-57
2020/12/10 03:18:39;;;;;;;;;;;;;;;3.08;69.60;101026.00;1789187;78;20302;-56
2020/12/10 03:21:06;;;;;;;;;;;;;;;3.06;69.77;101027.68;1788128;80;21379;-56
2020/12/10 03:23:33;;;;;;;;;;;;;;;3.11;69.63;101020.86;1793112;78;20234;-56
2020/12/10 03:26:00;;;;;;;;;;;;;;;3.14;69.59;101010.98;1795776;80;20249;-56
2020/12/10 03:28:27;;;;;;;;;;;;;;;3.15;69.57;101007.95;1791665;79;20242;-56
2020/12/10 03:30:55;;;;;;;;;;;;;;;3.17;69.54;101006.27;1788871;80;20477;-56
2020/12/10 03:33:22;;;;;;;;;;;;;;;3.21;69.46;101008.12;1795421;78;21832;-56
2020/12/10 03:35:50;;;;;;;;;;;;;;;2.97;70.06;101004.86;1795487;80;20246;-56
2020/12/10 03:38:17;;;;;;;;;;;;;;;3.00;70.01;100997.59;1789920;78;20214;-56
2020/12/10 03:40:44;;;;;;;;;;;;;;;3.03;69.98;101001.98;1791973;78;20254;-56
2020/12/10 03:43:11;;;;;;;;;;;;;;;3.04;70.00;100989.04;1792591;80;20241;-57
2020/12/10 03:45:39;;;;;;;;;;;;;;;3.02;70.06;100985.91;1793092;78;21370;-56
2020/12/10 03:48:06;;;;;;;;;;;;;;;3.02;70.13;100981.61;1790524;80;20258;-56
2020/12/10 03:50:34;;;;;;;;;;;;;;;3.03;70.14;100985.98;1793797;78;20215;-56
2020/12/10 03:53:04;;;;;;;;;;;;;;;3.09;70.01;100977.02;1792244;78;20250;-56
2020/12/10 03:55:31;;;;;;;;;;;;;;;3.10;70.06;100983.98;1791425;78;20245;-56
2020/12/10 03:57:58;;;;;;;;;;;;;;;3.15;69.99;100988.44;1786740;80;21425;-56
2020/12/10 04:00:26;;;;;;;;;;;;;;;3.13;70.06;100985.37;1786479;80;20238;-56
2020/12/10 04:02:53;;;;;;;;;;;;;;;3.07;70.26;100987.83;1781849;78;20262;-56
2020/12/10 04:05:21;;;;;;;;;;;;;;;3.14;70.16;100987.57;1779888;80;20894;-56
2020/12/10 04:07:48;;;;;;;;;;;;;;;3.16;70.11;100986.30;1780781;80;20269;-56
2020/12/10 04:10:16;;;;;;;;;;;;;;;3.06;70.42;100975.66;1785359;80;21239;-56
2020/12/10 04:12:43;;;;;;;;;;;;;;;3.05;70.49;100976.90;1780681;80;20208;-57
2020/12/10 04:15:11;;;;;;;;;;;;;;;3.05;70.50;100972.59;1778580;80;20254;-56
2020/12/10 04:17:38;;;;;;;;;;;;;;;3.06;70.47;100967.86;1780359;80;20274;-56
2020/12/10 04:20:06;;;;;;;;;;;;;;;3.04;70.55;100972.53;1781698;80;20230;-56
2020/12/10 04:22:33;;;;;;;;;;;;;;;3.05;70.62;100974.30;1779235;80;21034;-57
2020/12/10 04:25:00;;;;;;;;;;;;;;;3.07;70.59;100973.92;1785120;80;20207;-56
2020/12/10 04:27:27;;;;;;;;;;;;;;;3.08;70.61;100972.69;1776296;80;20245;-56
2020/12/10 04:29:55;;;;;;;;;;;;;;;3.09;70.63;100979.61;1780948;80;20261;-56
2020/12/10 04:32:23;;;;;;;;;;;;;;;3.10;70.65;100970.11;1773998;80;20268;-56
2020/12/10 04:34:50;;;;;;;;;;;;;;;3.13;70.64;100972.80;1778131;80;22165;-56
2020/12/10 04:37:18;;;;;;;;;;;;;;;3.15;70.63;100963.32;1782937;80;20398;-56
2020/12/10 04:39:47;;;;;;;;;;;;;;;3.17;70.59;100957.73;1783369;80;20496;-56
2020/12/10 04:42:17;;;;;;;;;;;;;;;3.20;70.57;100963.03;1776053;80;20231;-56
2020/12/10 04:44:45;;;;;;;;;;;;;;;3.23;70.51;100950.51;1774192;80;20230;-56
2020/12/10 04:47:12;;;;;;;;;;;;;;;3.27;70.37;100949.75;1761979;80;22317;-56
2020/12/10 04:49:40;;;;;;;;;;;;;;;3.32;70.30;100949.46;1768453;80;21172;-57
2020/12/10 04:52:08;;;;;;;;;;;;;;;3.33;70.33;100936.91;1779485;80;20305;-56
2020/12/10 04:54:37;;;;;;;;;;;;;;;3.30;70.46;100934.66;1772193;80;20250;-57
2020/12/10 04:57:04;;;;;;;;;;;;;;;3.29;70.54;100926.39;1776896;80;20222;-57
2020/12/10 04:59:31;;;;;;;;;;;;;;;3.30;70.49;100918.61;1754497;80;21392;-57
2020/12/10 05:01:59;;;;;;;;;;;;;;;3.31;70.50;100907.37;1765985;80;20246;-57
2020/12/10 05:04:27;;;;;;;;;;;;;;;3.30;70.56;100916.45;1759124;80;20254;-56
2020/12/10 05:06:55;;;;;;;;;;;;;;;3.32;70.58;100917.34;1772184;80;20241;-56
2020/12/10 05:09:22;;;;;;;;;;;;;;;3.32;70.60;100913.44;1788924;80;20214;-56
2020/12/10 05:11:50;;;;;;;;;;;;;;;3.36;70.47;100912.27;1761571;80;21370;-57
2020/12/10 05:14:17;;;;;;;;;;;;;;;3.38;70.37;100906.69;1776555;78;20233;-57
2020/12/10 05:16:45;;;;;;;;;;;;;;;3.36;70.45;100900.56;1787306;80;20512;-56
2020/12/10 05:19:21;;;;;;;;;;;;;;;3.35;70.54;100897.91;1795534;78;21417;-57
2020/12/10 05:22:06;;;;;;;;;;;;;;;3.38;70.42;100892.38;1792520;80;20253;-57
2020/12/10 05:24:33;;;;;;;;;;;;;;;4.36;68.15;100887.25;1793034;78;21401;-57
2020/12/10 05:27:20;;;;;;;;;;;;;;;3.85;68.64;100884.39;1789074;80;20250;-57
2020/12/10 05:29:48;;;;;;;;;;;;;;;3.33;70.46;100896.98;1790570;79;20219;-57
2020/12/10 05:32:32;;;;;;;;;;;;;;;3.13;71.27;100908.63;1779589;78;20242;-56
2020/12/10 05:35:02;;;;;;;;;;;;;;;4.59;67.66;100906.84;1778283;78;20232;-56
2020/12/10 05:37:30;;;;;;;;;;;;;;;4.68;66.35;100910.50;1781557;80;21635;-56
2020/12/10 05:40:01;;;;;;;;;;;;;;;3.35;70.53;100911.81;1788973;79;20391;-57
2020/12/10 05:42:37;;;;;;;;;;;;;;;3.30;70.88;100921.22;1771041;80;20279;-57
2020/12/10 05:45:16;;;;;;;;;;;;;;;3.30;70.93;100926.42;1786004;78;20262;-57
2020/12/10 05:47:51;;;;;;;;;;;;;;;3.31;71.00;100929.92;1788015;80;20233;-57
2020/12/10 05:50:26;;;;;;;;;;;;;;;3.30;71.03;100921.66;1794836;78;21197;-56
2020/12/10 05:53:09;;;;;;;;;;;;;;;3.24;71.19;100915.84;1784072;80;20244;-56
2020/12/10 05:55:42;;;;;;;;;;;;;;;3.23;71.31;100923.19;1793719;78;20209;-56
2020/12/10 05:58:10;;;;;;;;;;;;;;;3.29;71.23;100919.89;1794102;80;20217;-56
2020/12/10 06:00:37;;;;;;;;;;;;;;;3.26;71.38;100922.88;1773591;80;20236;-56
2020/12/10 06:03:05;;;;;;;;;;;;;;;3.22;71.62;100919.73;1791202;80;21193;-57
2020/12/10 06:05:33;;;;;;;;;;;;;;;3.22;71.67;100915.83;1793514;78;20258;-57
2020/12/10 06:08:05;;;;;;;;;;;;;;;3.21;71.71;100913.16;1726135;80;20224;-57
2020/12/10 06:10:41;;;;;;;;;;;;;;;3.19;71.79;100913.14;1781074;80;20246;-57
2020/12/10 06:13:10;;;;;;;;;;;;;;;3.21;71.82;100911.45;1773306;79;20247;-57
2020/12/10 06:15:38;;;;;;;;;;;;;;;3.25;71.80;100915.01;1785363;80;21388;-56
2020/12/10 06:18:13;;;;;;;;;;;;;;;3.24;71.95;100921.95;1788893;78;20226;-56
2020/12/10 06:20:42;;;;;;;;;;;;;;;3.27;71.97;100928.94;1786863;79;20246;-56
2020/12/10 06:23:28;;;;;;;;;;;;;;;3.29;72.12;100929.86;1785829;80;20893;-56
2020/12/10 06:25:57;;;;;;;;;;;;;;;3.33;72.14;100917.80;1762644;80;20249;-56
2020/12/10 06:28:24;;;;;;;;;;;;;;;3.35;72.03;100920.92;1782477;78;21292;-57
2020/12/10 06:31:05;;;;;;;;;;;;;;;3.33;72.04;100921.30;1779791;79;20209;-58
2020/12/10 06:33:40;;;;;;;;;;;;;;;3.32;72.07;100918.23;1780287;79;20228;-57
2020/12/10 06:36:21;;;;;;;;;;;;;;;3.30;72.14;100921.22;1745899;80;20236;-57
2020/12/10 06:38:53;;;;;;;;;;;;;;;3.30;72.17;100927.72;1786307;79;20216;-57
2020/12/10 06:41:20;;;;;;;;;;;;;;;3.31;72.21;100928.63;1795451;80;21336;-57
2020/12/10 06:43:47;;;;;;;;;;;;;;;3.32;72.17;100920.84;1792737;78;20230;-57
2020/12/10 06:46:16;;;;;;;;;;;;;;;3.34;72.19;100914.36;1777661;78;20269;-58
2020/12/10 06:48:46;;;;;;;;;;;;;;;3.34;72.20;100912.66;1760781;78;20241;-58
2020/12/10 06:51:20;;;;;;;;;;;;;;;3.35;72.23;100902.70;1766995;80;20220;-58
2020/12/10 06:54:06;;;;;;;;;;;;;;;3.34;72.24;100893.14;1783383;80;22331;-57
2020/12/10 06:56:33;;;;;;;;;;;;;;;3.25;72.55;100886.39;1792798;78;20269;-57
2020/12/10 06:59:02;;;;;;;;;;;;;;;3.22;72.74;100883.70;1757840;80;20268;-57
2020/12/10 07:01:34;;;;;;;;;;;;;;;3.20;72.84;100890.19;1789005;78;20246;-57
2020/12/10 07:07:21;;;;;;;;;;;;;;;3.24;72.83;100880.32;1786827;80;21383;-57
2020/12/10 07:09:53;;;;;;;;;;;;;;;3.23;72.94;100882.87;1775807;80;20236;-57
2020/12/10 07:12:25;;;;;;;;;;;;;;;3.12;73.27;100885.20;1737329;81;20256;-57
2020/12/10 07:15:12;;;;;;;;;;;;;;;3.22;73.09;100883.30;1729072;82;20242;-57
2020/12/10 07:17:48;;;;;;;;;;;;;;;3.26;73.00;100879.94;1722958;82;20251;-57
2020/12/10 07:20:16;;;;;;;;;;;;;;;3.30;72.92;100877.42;1726005;82;21211;-57
2020/12/10 07:22:44;;;;;;;;;;;;;;;3.32;72.97;100879.61;1727915;82;20627;-57
2020/12/10 07:25:11;;;;;;;;;;;;;;;3.31;72.99;100873.98;1782447;80;20219;-58
2020/12/10 07:27:45;;;;;;;;;;;;;;;3.51;72.28;100875.78;1761956;80;20266;-57
2020/12/10 07:30:14;;;;;;;;;;;;;;;3.69;72.20;100872.30;1776339;80;20236;-57
2020/12/10 07:32:42;;;;;;;;;;;;;;;3.99;70.57;100875.59;1760936;80;22389;-57
2020/12/10 07:35:10;;;;;;;;;;;;;;;3.45;72.50;100882.99;1770862;80;20255;-57
2020/12/10 07:37:38;;;;;;;;;;;;;;;3.37;72.82;100875.00;1783216;80;20233;-57
2020/12/10 07:40:15;;;;;;;;;;;;;;;3.57;72.69;100878.09;1761259;80;20706;-57
2020/12/10 07:42:43;;;;;;;;;;;;;;;3.51;72.48;100878.38;1774034;80;20238;-58
2020/12/10 07:45:13;;;;;;;;;;;;;;;4.19;71.21;100866.91;1763872;80;21202;-58
2020/12/10 07:47:41;;;;;;;;;;;;;;;3.74;72.10;100850.70;1784151;80;20242;-58
2020/12/10 07:50:20;;;;;;;;;;;;;;;4.98;68.50;100851.94;1768896;80;20293;-57
2020/12/10 07:52:44;;;;;;;;;;;;;;;4.58;69.52;100857.29;1775970;80;20285;-57
2020/12/10 07:55:15;;;;;;;;;;;;;;;3.64;72.43;100862.63;1787153;80;20290;-59
2020/12/10 07:57:44;;;;;;;;;;;;;;;3.56;72.83;100865.92;1773762;80;21196;-56
2020/12/10 08:00:16;;;;;;;;;;;;;;;3.54;72.98;100864.11;1783346;80;20266;-57
2020/12/10 08:03:05;;;;;;;;;;;;;;;3.52;73.17;100861.92;1785698;79;20238;-56
2020/12/10 08:05:32;;;;;;;;;;;;;;;3.53;73.25;100876.70;1751396;80;20576;-57
2020/12/10 08:08:00;;;;;;;;;;;;;;;3.53;73.39;100864.98;1766005;80;20461;-56
2020/12/10 08:10:29;;;;;;;;;;;;;;;3.63;73.11;100860.43;1779791;80;21338;-57
2020/12/10 08:13:17;;;;;;;;;;;;;;;3.68;73.10;100860.56;1771234;80;20261;-56
2020/12/10 08:15:47;;;;;;;;;;;;;;;4.16;71.41;100866.43;1759335;80;20254;-56
2020/12/10 08:18:19;;;;;;;;;;;;;;;3.79;72.78;100862.97;1766133;80;21129;-56
2020/12/10 08:20:49;;;;;;;;;;;;;;;3.79;72.89;100860.80;1757000;80;20222;-56
2020/12/10 08:23:17;;;;;;;;;;;;;;;3.79;72.92;100860.80;1770943;80;21396;-56
2020/12/10 08:25:51;;;;;;;;;;;;;;;3.82;72.93;100855.67;1770096;80;20239;-56
2020/12/10 08:28:18;;;;;;;;;;;;;;;3.82;73.00;100857.84;1754213;80;20526;-56
2020/12/10 08:30:52;;;;;;;;;;;;;;;3.92;72.77;100850.23;1770459;80;20533;-55
2020/12/10 08:33:20;;;;;;;;;;;;;;;4.12;72.29;100835.05;1757233;80;20620;-56
2020/12/10 08:35:47;;;;;;;;;;;;;;;4.00;72.62;100822.20;1747488;80;21172;-57
2020/12/10 08:38:15;;;;;;;;;;;;;;;3.90;72.99;100815.06;1760986;80;20258;-57
2020/12/10 08:40:43;;;;;;;;;;;;;;;3.97;72.92;100816.06;1753483;80;20234;-57
2020/12/10 08:43:15;;;;;;;;;;;;;;;4.09;72.72;100811.53;1768067;80;20262;-57
2020/12/10 08:45:46;;;;;;;;;;;;;;;3.98;73.14;100804.36;1772782;80;20254;-57
2020/12/10 08:48:16;;;;;;;;;;;;;;;4.00;73.25;100787.48;1763875;80;22091;-57
2020/12/10 08:50:53;;;;;;;;;;;;;;;4.10;73.03;100798.96;1769754;80;38629;-57
2020/12/10 08:53:21;;;;;;;;;;;;;;;4.02;73.46;100793.60;1753334;80;20272;-57
2020/12/10 08:55:50;;;;;;;;;;;;;;;4.07;73.48;100788.48;1772764;80;20297;-57
2020/12/10 08:58:24;;;;;;;;;;;;;;;4.11;73.55;100782.48;1773401;80;20230;-57
2020/12/10 09:00:54;;;;;;;;;;;;;;;4.29;73.15;100775.46;1758372;80;21350;-57
2020/12/10 09:03:22;;;;;;;;;;;;;;;4.35;73.06;100781.23;1757965;80;20233;-57
2020/12/10 09:05:50;;;;;;;;;;;;;;;4.40;72.96;100773.09;1769273;80;20572;-57
2020/12/10 09:08:18;;;;;;;;;;;;;;;4.40;72.97;100778.30;1779286;80;20245;-57
2020/12/10 09:10:46;;;;;;;;;;;;;;;4.45;72.88;100772.72;1765554;80;20262;-57
2020/12/10 09:13:13;;;;;;;;;;;;;;;4.36;73.27;100772.13;1776765;80;21266;-58
2020/12/10 09:15:43;;;;;;;;;;;;;;;4.36;73.40;100772.13;1768049;80;20233;-59
2020/12/10 09:18:12;;;;;;;;;;;;;;;4.36;73.52;100776.05;1763288;80;20262;-59
2020/12/10 09:20:41;;;;;;;;;;;;;;;4.34;73.55;100780.34;1771740;80;20231;-58
2020/12/10 09:23:09;;;;;;;;;;;;;;;4.50;73.21;100770.23;1767747;80;20249;-58
2020/12/10 09:25:37;;;;;;;;;;;;;;;4.52;73.20;100769.39;1771123;80;21369;-58
2020/12/10 09:28:06;;;;;;;;;;;;;;;4.59;73.09;100773.02;1773771;80;20229;-58
2020/12/10 09:30:33;;;;;;;;;;;;;;;4.61;73.14;100771.31;1761634;80;20243;-59
2020/12/10 09:33:01;;;;;;;;;;;;;;;4.67;73.10;100762.71;1734061;81;20450;-58
2020/12/10 09:35:29;;;;;;;;;;;;;;;4.69;73.14;100757.10;1744022;80;20539;-58
2020/12/10 09:37:56;;;;;;;;;;;;;;;4.69;73.23;100748.84;1774570;80;21205;-58
2020/12/10 09:40:23;;;;;;;;;;;;;;;4.70;73.58;100737.55;1776782;80;20219;-58
2020/12/10 09:42:51;;;;;;;;;;;;;;;4.71;74.15;100731.93;1777995;80;20223;-58
2020/12/10 09:45:19;;;;;;;;;;;;;;;4.73;74.26;100736.31;1781708;80;20273;-59
2020/12/10 09:47:47;;;;;;;;;;;;;;;4.76;74.28;100736.80;1763328;80;20268;-58
2020/12/10 09:50:24;;;;;;;;;;;;;;;4.79;74.12;100742.08;1750273;80;21199;-57
2020/12/10 09:52:56;;;;;;;;;;;;;;;4.80;74.12;100736.42;1770560;80;20244;-58
2020/12/10 09:55:47;;;;;;;;;;;;;;;4.81;74.04;100728.64;1762118;80;20543;-58
2020/12/10 09:58:05;;;;;;;;;;;;;;;4.78;74.16;100721.17;1757500;80;20228;-57
2020/12/10 10:00:33;;;;;;;;;;;;;;;4.80;74.24;100719.06;1779225;80;20273;-57
2020/12/10 10:03:05;;;;;;;;;;;;;;;4.88;74.07;100719.17;1785624;80;21721;-56
2020/12/10 10:05:33;;;;;;;;;;;;;;;4.93;74.10;100721.84;1762622;80;20244;-56
2020/12/10 10:08:01;;;;;;;;;;;;;;;4.95;74.14;100714.52;1773483;80;20253;-55
2020/12/10 10:10:28;;;;;;;;;;;;;;;4.95;74.29;100712.31;1777665;80;20290;-55
2020/12/10 10:12:56;;;;;;;;;;;;;;;5.05;74.06;100707.30;1760126;80;20227;-56
2020/12/10 10:15:24;;;;;;;;;;;;;;;5.12;74.06;100711.27;1771704;80;21386;-55
2020/12/10 10:17:51;;;;;;;;;;;;;;;5.17;74.07;100718.34;1772379;80;20274;-56
2020/12/10 10:20:19;;;;;;;;;;;;;;;5.24;74.01;100716.69;1773384;80;20278;-56
2020/12/10 10:22:47;;;;;;;;;;;;;;;5.29;74.00;100717.64;1763198;80;20263;-56
2020/12/10 10:25:14;;;;;;;;;;;;;;;5.34;74.02;100717.69;1771709;80;20489;-56
2020/12/10 10:27:42;;;;;;;;;;;;;;;5.39;74.01;100711.25;1766926;80;21192;-56
2020/12/10 10:30:09;;;;;;;;;;;;;;;5.45;74.05;100717.43;1779915;80;20339;-56
2020/12/10 10:32:36;;;;;;;;;;;;;;;5.54;73.98;100722.34;1762705;80;20223;-57
2020/12/10 10:35:04;;;;;;;;;;;;;;;5.63;73.85;100717.24;1761444;80;20238;-56
2020/12/10 10:37:32;;;;;;;;;;;;;;;5.70;73.75;100710.36;1754972;80;20644;-56
2020/12/10 10:39:59;;;;;;;;;;;;;;;5.70;73.87;100713.86;1778111;80;21340;-55
2020/12/10 10:42:29;;;;;;;;;;;;;;;5.76;73.82;100708.69;1768685;80;20243;-56
2020/12/10 10:44:57;;;;;;;;;;;;;;;5.77;73.87;100701.30;1770264;80;20246;-56
2020/12/10 10:47:24;;;;;;;;;;;;;;;5.78;73.90;100696.53;1743741;80;20245;-56
2020/12/10 10:49:52;;;;;;;;;;;;;;;5.80;73.91;100699.17;1772818;80;20250;-57
2020/12/10 10:52:20;;;;;;;;;;;;;;;5.83;73.95;100702.24;1766132;80;21413;-56
2020/12/10 10:54:47;;;;;;;;;;;;;;;5.84;73.97;100697.05;1772736;80;20266;-56
2020/12/10 10:57:15;;;;;;;;;;;;;;;5.87;73.95;100699.70;1770364;80;20252;-56
2020/12/10 10:59:42;;;;;;;;;;;;;;;5.88;73.98;100692.31;1752293;80;20219;-56
2020/12/10 11:02:10;;;;;;;;;;;;;;;5.90;74.03;100688.41;1763660;80;20545;-56
2020/12/10 11:04:38;;;;;;;;;;;;;;;5.92;74.01;100698.44;1761382;80;21438;-57
2020/12/10 11:07:06;;;;;;;;;;;;;;;5.94;74.09;100695.42;1776584;80;21979;-57
2020/12/10 11:09:36;;;;;;;;;;;;;;;5.96;74.05;100700.23;1771882;80;20246;-58
2020/12/10 11:12:14;;;;;;;;;;;;;;;5.92;74.19;100694.11;1757770;81;20291;-58
2020/12/10 11:14:43;;;;;;;;;;;;;;;5.94;74.18;100693.70;1740244;81;20262;-58
2020/12/10 11:17:12;;;;;;;;;;;;;;;5.91;74.25;100676.67;1729160;82;21197;-58
2020/12/10 11:19:40;;;;;;;;;;;;;;;5.87;74.50;100679.22;1686665;82;22108;-58
2020/12/10 11:22:07;;;;;;;;;;;;;;;5.89;74.53;100677.50;1718176;83;20520;-57
2020/12/10 11:24:35;;;;;;;;;;;;;;;5.90;74.59;100676.64;1733157;81;20265;-59
2020/12/10 11:27:03;;;;;;;;;;;;;;;5.90;74.65;100668.80;1720488;81;20249;-58
2020/12/10 11:29:30;;;;;;;;;;;;;;;5.90;74.74;100676.23;1725707;82;20990;-58
2020/12/10 11:31:58;;;;;;;;;;;;;;;5.95;74.69;100669.73;1706674;82;20256;-58
2020/12/10 11:34:26;;;;;;;;;;;;;;;6.02;74.56;100657.64;1750591;80;20248;-58
2020/12/10 11:36:53;;;;;;;;;;;;;;;6.03;74.56;100675.08;1749236;80;20554;-59
2020/12/10 11:39:21;;;;;;;;;;;;;;;6.02;74.68;100665.06;1753662;80;20244;-58
2020/12/10 11:41:51;;;;;;;;;;;;;;;6.03;75.20;100662.01;1749783;80;21387;-58
2020/12/10 11:44:19;;;;;;;;;;;;;;;6.06;75.26;100661.63;1750430;80;20312;-58
2020/12/10 11:46:47;;;;;;;;;;;;;;;6.10;75.18;100661.22;1747586;80;20322;-59
2020/12/10 11:49:15;;;;;;;;;;;;;;;6.16;74.99;100657.37;1748778;80;20239;-57
2020/12/10 11:51:42;;;;;;;;;;;;;;;6.14;75.05;100652.55;1740089;80;20495;-58
2020/12/10 11:54:10;;;;;;;;;;;;;;;6.16;75.07;100652.59;1749790;82;21347;-58
2020/12/10 11:56:39;;;;;;;;;;;;;;;6.18;75.05;100645.64;1751001;80;20241;-58
2020/12/10 11:59:07;;;;;;;;;;;;;;;6.22;74.97;100643.47;1750605;80;20240;-58
2020/12/10 12:01:39;;;;;;;;;;;;;;;6.26;74.87;100641.34;1750644;82;20233;-58
2020/12/10 12:04:07;;;;;;;;;;;;;;;6.36;74.62;100641.02;1750610;82;20259;-61
2020/12/10 12:06:34;;;;;;;;;;;;;;;6.33;74.75;100640.98;1750000;80;22089;-59
2020/12/10 12:09:01;;;;;;;;;;;;;;;6.16;75.30;100629.06;1750599;80;20217;-58
2020/12/10 12:11:29;;;;;;;;;;;;;;;6.11;75.53;100630.30;1750500;81;20312;-59
2020/12/10 12:13:56;;;;;;;;;;;;;;;6.10;75.65;100625.94;1755276;80;20215;-59
2020/12/10 12:16:24;;;;;;;;;;;;;;;6.11;75.71;100630.30;1748089;80;20233;-59
2020/12/10 12:18:52;;;;;;;;;;;;;;;6.18;75.53;100630.81;1750545;80;21152;-59
2020/12/10 12:21:28;;;;;;;;;;;;;;;6.34;75.07;100630.52;1750469;81;20233;-59
2020/12/10 12:23:55;;;;;;;;;;;;;;;6.37;74.98;100624.02;1753526;80;20554;-59
2020/12/10 12:26:30;;;;;;;;;;;;;;;6.44;74.92;100631.48;1750532;81;21272;-56
2020/12/10 12:28:58;;;;;;;;;;;;;;;6.41;75.11;100635.37;1750610;81;20248;-58
2020/12/10 12:31:29;;;;;;;;;;;;;;;6.45;75.08;100629.75;1750501;81;21214;-58
2020/12/10 12:33:59;;;;;;;;;;;;;;;6.46;75.07;100638.91;1748836;81;20359;-59
2020/12/10 12:36:27;;;;;;;;;;;;;;;6.51;75.03;100641.13;1750495;81;20248;-59
2020/12/10 12:38:55;;;;;;;;;;;;;;;6.58;74.87;100642.08;1747790;81;20527;-59
2020/12/10 12:41:29;;;;;;;;;;;;;;;6.62;74.76;100642.97;1757144;80;20274;-59
2020/12/10 12:43:57;;;;;;;;;;;;;;;6.65;74.70;100653.01;1750375;82;21213;-59
2020/12/10 12:46:24;;;;;;;;;;;;;;;6.68;74.59;100650.42;1752429;81;20240;-59
2020/12/10 12:48:52;;;;;;;;;;;;;;;6.67;74.63;100642.58;1750380;80;20235;-59
2020/12/10 12:51:20;;;;;;;;;;;;;;;6.68;74.58;100640.41;1748477;80;20241;-58
2020/12/10 12:53:48;;;;;;;;;;;;;;;6.69;74.58;100635.17;1739300;80;20315;-58
2020/12/10 12:56:16;;;;;;;;;;;;;;;6.68;74.63;100641.72;1739087;80;21366;-59
2020/12/10 12:58:48;;;;;;;;;;;;;;;6.69;74.62;100639.55;1750439;80;21752;-59
2020/12/10 13:01:13;;;;;;;;;;;;;;;6.70;74.65;100639.54;1755577;80;20293;-59